Time;durP1;ratioP1;P1;durP2;ratioP2;P2;SDS_P1;SDS_P2;PMS_P1;PMS_P2;Temp;Humidity;BMP_temperature;BMP_pressure;BME280_temperature;BME280_humidity;BME280_pressure;Samples;Min_cycle;Max_cycle;Signal;HPM_P1;HPM_P2
2022/12/20 00:02:15;;;;;;;14.37;7.23;;;4.90;99.90;;;;;;6180706;23;20440;-61
2022/12/20 00:04:43;;;;;;;14.73;7.53;;;4.90;99.90;;;;;;6180496;23;20414;-62
2022/12/20 00:07:11;;;;;;;19.33;9.17;;;4.90;99.90;;;;;;6180278;23;20430;-63
2022/12/20 00:09:38;;;;;;;12.43;8.23;;;4.90;99.90;;;;;;6175226;23;20401;-62
2022/12/20 00:12:05;;;;;;;15.80;7.43;;;4.90;99.90;;;;;;6177194;23;20408;-61
2022/12/20 00:14:32;;;;;;;11.37;5.83;;;4.90;99.90;;;;;;6178602;23;20457;-62
2022/12/20 00:16:59;;;;;;;16.10;7.90;;;4.90;99.90;;;;;;6178260;23;20421;-61
2022/12/20 00:19:26;;;;;;;22.37;8.63;;;4.90;99.90;;;;;;6174043;23;20413;-61
2022/12/20 00:21:53;;;;;;;10.77;7.37;;;5.00;99.90;;;;;;6179365;23;20401;-62
2022/12/20 00:24:21;;;;;;;13.53;6.73;;;4.90;99.90;;;;;;6180538;23;20517;-62
2022/12/20 00:26:49;;;;;;;14.40;8.27;;;5.00;99.90;;;;;;6179196;23;20406;-62
2022/12/20 00:29:16;;;;;;;12.93;6.97;;;4.90;99.90;;;;;;6178421;23;20430;-63
2022/12/20 00:31:44;;;;;;;14.17;7.70;;;4.90;99.90;;;;;;6179336;23;20394;-59
2022/12/20 00:34:10;;;;;;;14.60;8.80;;;5.00;99.90;;;;;;6180041;23;20442;-62
2022/12/20 00:36:40;;;;;;;13.37;7.93;;;4.90;99.90;;;;;;6179696;23;20408;-63
2022/12/20 00:39:06;;;;;;;11.73;8.03;;;4.90;99.90;;;;;;6180235;23;20398;-62
2022/12/20 00:41:45;;;;;;;15.60;7.20;;;4.90;99.90;;;;;;6144979;23;20498;-62
2022/12/20 00:44:12;;;;;;;13.23;7.10;;;4.90;99.90;;;;;;6114482;23;20514;-57
2022/12/20 00:46:39;;;;;;;12.40;7.07;;;4.90;99.90;;;;;;6117127;23;20424;-62
2022/12/20 00:49:06;;;;;;;12.40;6.53;;;4.90;99.90;;;;;;6121201;23;20395;-63
2022/12/20 00:51:33;;;;;;;14.43;8.87;;;4.90;99.90;;;;;;6119509;23;20399;-61
2022/12/20 00:54:00;;;;;;;18.80;6.70;;;5.00;99.90;;;;;;6119331;23;20388;-58
2022/12/20 00:56:27;;;;;;;11.40;6.53;;;5.00;99.90;;;;;;6121510;23;20388;-62
2022/12/20 00:58:57;;;;;;;14.37;7.07;;;5.00;99.90;;;;;;6115296;23;20418;-61
2022/12/20 01:01:27;;;;;;;13.80;7.20;;;5.00;99.90;;;;;;6120056;23;20411;-62
2022/12/20 01:03:54;;;;;;;10.83;6.43;;;5.00;99.90;;;;;;6116908;23;20427;-63
2022/12/20 01:06:25;;;;;;;14.80;7.57;;;5.10;99.90;;;;;;6119535;23;20431;-61
2022/12/20 01:08:52;;;;;;;9.43;6.50;;;5.10;99.90;;;;;;6116904;23;20434;-62
2022/12/20 01:11:21;;;;;;;12.47;7.10;;;5.10;99.90;;;;;;6118334;23;20379;-62
2022/12/20 01:13:50;;;;;;;14.90;6.63;;;5.40;99.90;;;;;;6120235;23;20399;-60
2022/12/20 01:16:24;;;;;;;15.60;6.93;;;5.10;99.90;;;;;;6118749;23;20395;-60
2022/12/20 01:18:52;;;;;;;10.83;6.00;;;5.10;99.90;;;;;;6118910;23;20391;-60
2022/12/20 01:21:22;;;;;;;9.30;6.87;;;5.10;99.90;;;;;;6119738;23;20415;-60
2022/12/20 01:23:49;;;;;;;12.83;7.83;;;5.00;99.90;;;;;;6119283;23;20444;-59
2022/12/20 01:26:21;;;;;;;12.93;6.90;;;5.00;99.90;;;;;;6119945;23;20423;-62
2022/12/20 01:28:49;;;;;;;12.57;6.67;;;5.10;99.90;;;;;;6119222;23;20415;-62
2022/12/20 01:31:18;;;;;;;12.87;6.97;;;5.00;99.90;;;;;;6120757;23;20435;-62
2022/12/20 01:33:47;;;;;;;13.47;6.40;;;5.10;99.90;;;;;;6121336;23;20408;-61
2022/12/20 01:36:16;;;;;;;19.03;8.63;;;5.10;99.90;;;;;;6119215;23;20451;-62
2022/12/20 01:38:43;;;;;;;16.53;7.10;;;5.10;99.90;;;;;;6119106;23;20410;-62
2022/12/20 01:41:14;;;;;;;15.13;8.87;;;5.10;99.90;;;;;;6068584;23;1128938;-62
2022/12/20 01:43:50;;;;;;;11.30;6.03;;;5.10;99.90;;;;;;6119824;23;20451;-61
2022/12/20 01:46:19;;;;;;;14.00;9.03;;;5.10;99.90;;;;;;6122107;23;20388;-62
2022/12/20 01:48:51;;;;;;;13.70;6.47;;;5.10;99.90;;;;;;6121432;23;20431;-63
2022/12/20 01:51:19;;;;;;;12.57;6.70;;;5.10;99.90;;;;;;6121923;23;20384;-58
2022/12/20 01:53:47;;;;;;;12.83;7.40;;;5.20;99.90;;;;;;6120520;23;20411;-62
2022/12/20 01:56:14;;;;;;;12.90;6.80;;;5.10;99.90;;;;;;6121243;23;20431;-62
2022/12/20 01:58:43;;;;;;;14.43;6.17;;;5.20;99.90;;;;;;6112841;23;20415;-61
2022/12/20 02:01:10;;;;;;;10.30;6.17;;;5.20;99.90;;;;;;6121249;23;20436;-56
2022/12/20 02:03:39;;;;;;;11.00;6.73;;;5.20;99.90;;;;;;6120588;23;20416;-61
2022/12/20 02:06:17;;;;;;;14.97;8.13;;;5.10;99.90;;;;;;6121483;23;20416;-60
2022/12/20 02:08:46;;;;;;;10.27;7.10;;;5.20;99.90;;;;;;6122389;23;20411;-62
2022/12/20 02:11:26;;;;;;;9.87;5.50;;;5.20;99.90;;;;;;6120783;23;20403;-58
2022/12/20 02:14:05;;;;;;;18.20;9.40;;;5.20;99.90;;;;;;6120569;23;20398;-60
2022/12/20 02:16:40;;;;;;;11.97;6.30;;;5.20;99.90;;;;;;6119934;23;20422;-61
2022/12/20 02:19:23;;;;;;;16.00;8.43;;;5.20;99.90;;;;;;6120733;23;20441;-62
2022/12/20 02:22:01;;;;;;;16.43;8.10;;;5.30;99.90;;;;;;6122685;23;20387;-62
2022/12/20 02:24:55;;;;;;;11.80;5.83;;;5.30;99.90;;;;;;6122844;23;20431;-63
2022/12/20 02:27:52;;;;;;;8.97;6.30;;;5.30;99.90;;;;;;6122124;23;20464;-62
2022/12/20 02:30:22;;;;;;;11.33;5.50;;;5.30;99.90;;;;;;6121674;23;20439;-57
2022/12/20 02:32:54;;;;;;;19.17;6.27;;;5.30;99.90;;;;;;6120987;23;20406;-60
2022/12/20 02:35:25;;;;;;;16.90;6.43;;;5.30;99.90;;;;;;6121715;23;20451;-58
2022/12/20 02:37:54;;;;;;;13.33;6.50;;;5.30;99.90;;;;;;6121302;23;20388;-63
2022/12/20 02:40:24;;;;;;;16.27;6.73;;;5.40;99.90;;;;;;6117878;23;20435;-60
2022/12/20 02:42:55;;;;;;;11.10;7.00;;;5.40;99.90;;;;;;6121185;23;20423;-63
2022/12/20 02:45:26;;;;;;;18.80;7.67;;;5.40;99.90;;;;;;6122484;23;20388;-58
2022/12/20 02:47:58;;;;;;;13.20;6.60;;;5.40;99.90;;;;;;6122416;23;20855;-62
2022/12/20 02:50:30;;;;;;;8.33;6.07;;;5.40;99.90;;;;;;6122448;23;20388;-58
2022/12/20 02:53:01;;;;;;;8.83;6.80;;;5.50;99.90;;;;;;6122072;23;20411;-62
2022/12/20 02:55:37;;;;;;;11.80;6.30;;;5.50;99.90;;;;;;6122341;23;20424;-60
2022/12/20 02:58:12;;;;;;;14.33;8.00;;;5.50;99.90;;;;;;6122927;23;20392;-61
2022/12/20 03:00:45;;;;;;;15.50;7.90;;;5.50;99.90;;;;;;6121042;23;20376;-62
2022/12/20 03:03:22;;;;;;;11.77;6.87;;;5.50;99.90;;;;;;6122761;23;20433;-60
2022/12/20 03:05:51;;;;;;;11.80;6.60;;;5.50;99.90;;;;;;6118952;23;20422;-63
2022/12/20 03:08:18;;;;;;;10.20;7.37;;;5.50;99.90;;;;;;6121782;23;20412;-61
2022/12/20 03:10:45;;;;;;;10.20;5.53;;;5.60;99.90;;;;;;6122262;23;20444;-62
2022/12/20 03:13:12;;;;;;;12.33;6.83;;;5.60;99.90;;;;;;6119509;23;20411;-63
2022/12/20 03:15:40;;;;;;;12.20;6.50;;;5.60;99.90;;;;;;6120813;23;20443;-60
2022/12/20 03:18:07;;;;;;;10.20;7.10;;;5.70;99.90;;;;;;6122446;23;20406;-63
2022/12/20 03:20:35;;;;;;;11.73;7.27;;;5.70;99.90;;;;;;6121945;23;20407;-65
2022/12/20 03:23:02;;;;;;;11.60;5.90;;;5.80;99.90;;;;;;6122449;23;20440;-63
2022/12/20 03:25:29;;;;;;;12.00;5.67;;;5.80;99.90;;;;;;6122210;23;20388;-62
2022/12/20 03:27:56;;;;;;;9.30;6.47;;;5.80;99.90;;;;;;6121948;23;20431;-56
2022/12/20 03:30:22;;;;;;;10.80;6.57;;;5.80;99.90;;;;;;6116653;23;20397;-63
2022/12/20 03:32:51;;;;;;;13.20;6.90;;;5.80;99.90;;;;;;6121890;23;20391;-58
2022/12/20 03:35:18;;;;;;;11.30;6.43;;;5.80;99.90;;;;;;6121297;23;20455;-63
2022/12/20 03:37:45;;;;;;;10.93;5.63;;;5.80;99.90;;;;;;6115294;23;20415;-62
2022/12/20 03:40:12;;;;;;;12.40;7.50;;;5.80;99.90;;;;;;6121237;23;20419;-62
2022/12/20 03:42:39;;;;;;;8.23;5.17;;;5.80;99.90;;;;;;6121642;23;20406;-58
2022/12/20 03:45:07;;;;;;;12.87;7.80;;;5.90;99.90;;;;;;6121609;23;20420;-62
2022/12/20 03:47:34;;;;;;;8.93;5.37;;;5.90;99.90;;;;;;6121144;23;20400;-62
2022/12/20 03:50:03;;;;;;;13.07;7.07;;;5.90;99.90;;;;;;6120719;23;20407;-63
2022/12/20 03:52:30;;;;;;;10.50;6.50;;;5.90;99.90;;;;;;6121134;23;20407;-59
2022/12/20 03:54:56;;;;;;;10.43;6.37;;;5.90;99.90;;;;;;6120456;23;20439;-64
2022/12/20 03:57:23;;;;;;;11.07;6.40;;;6.00;99.90;;;;;;6120573;23;20428;-62
2022/12/20 03:59:53;;;;;;;9.90;6.10;;;6.00;99.90;;;;;;6120464;23;20403;-62
2022/12/20 04:02:20;;;;;;;10.00;6.33;;;6.00;99.90;;;;;;6114978;23;20439;-62
2022/12/20 04:04:47;;;;;;;11.13;5.67;;;5.90;99.90;;;;;;6120551;23;20449;-62
2022/12/20 04:07:15;;;;;;;14.90;7.43;;;5.90;99.90;;;;;;6119525;23;20407;-61
2022/12/20 04:09:45;;;;;;;15.23;8.10;;;5.90;99.90;;;;;;6119578;23;20427;-62
2022/12/20 04:12:12;;;;;;;15.50;7.37;;;5.90;99.90;;;;;;6119922;23;20408;-61
2022/12/20 04:14:38;;;;;;;9.70;6.53;;;5.90;99.90;;;;;;6120098;23;20454;-62
2022/12/20 04:17:05;;;;;;;12.27;6.73;;;5.90;99.90;;;;;;6119409;23;20446;-60
2022/12/20 04:19:32;;;;;;;13.37;6.00;;;5.90;99.90;;;;;;6120276;23;20447;-63
2022/12/20 04:21:59;;;;;;;12.83;7.67;;;5.90;99.90;;;;;;6120472;23;20411;-63
2022/12/20 04:24:27;;;;;;;9.33;5.20;;;6.00;99.90;;;;;;6120219;23;20408;-61
2022/12/20 04:26:54;;;;;;;15.73;7.87;;;6.00;99.90;;;;;;6120153;23;20423;-60
2022/12/20 04:29:27;;;;;;;8.70;6.10;;;5.90;99.90;;;;;;6120480;23;20396;-59
2022/12/20 04:31:54;;;;;;;7.77;5.43;;;6.00;99.90;;;;;;6119456;23;20446;-62
2022/12/20 04:34:23;;;;;;;10.47;6.70;;;5.90;99.90;;;;;;6120079;23;20403;-62
2022/12/20 04:36:50;;;;;;;11.00;7.43;;;5.90;99.90;;;;;;6121159;23;20451;-63
2022/12/20 04:39:18;;;;;;;10.10;5.20;;;5.90;99.90;;;;;;6119472;23;20703;-62
2022/12/20 04:41:46;;;;;;;14.23;5.53;;;5.90;99.90;;;;;;6120323;23;20404;-63
2022/12/20 04:44:13;;;;;;;9.10;5.93;;;5.80;99.90;;;;;;6119614;23;20428;-61
2022/12/20 04:46:40;;;;;;;10.50;5.67;;;5.90;99.90;;;;;;6120562;23;20396;-57
2022/12/20 04:49:06;;;;;;;11.60;7.03;;;5.80;99.90;;;;;;6120104;23;20434;-62
2022/12/20 04:51:34;;;;;;;13.10;6.27;;;5.80;99.90;;;;;;6120316;23;20407;-61
2022/12/20 04:53:59;;;;;;;12.77;7.07;;;5.80;99.90;;;;;;6120268;23;20411;-61
2022/12/20 04:56:28;;;;;;;9.80;5.97;;;5.80;99.90;;;;;;6120280;23;20431;-62
2022/12/20 04:59:01;;;;;;;8.63;5.33;;;5.80;99.90;;;;;;6120637;23;20167;-62
2022/12/20 05:01:28;;;;;;;11.60;7.70;;;5.70;99.90;;;;;;6120839;23;20436;-61
2022/12/20 05:03:55;;;;;;;16.13;7.53;;;5.70;99.90;;;;;;6120644;23;20407;-61
2022/12/20 05:06:22;;;;;;;16.07;6.93;;;5.70;99.90;;;;;;6121220;23;20387;-62
2022/12/20 05:08:49;;;;;;;10.00;6.30;;;5.70;99.90;;;;;;6121218;23;20398;-61
2022/12/20 05:11:16;;;;;;;17.73;7.70;;;5.70;99.90;;;;;;6120617;23;20408;-62
2022/12/20 05:13:43;;;;;;;15.47;7.73;;;5.70;99.90;;;;;;6120645;23;20431;-62
2022/12/20 05:16:12;;;;;;;14.77;7.27;;;5.70;99.90;;;;;;6119820;23;20439;-62
2022/12/20 05:18:39;;;;;;;10.57;7.20;;;5.70;99.90;;;;;;6120342;23;20431;-58
2022/12/20 05:26:39;;;;;;;9.20;6.30;;;5.70;99.90;;;;;;6118997;23;20399;-60
2022/12/20 05:29:07;;;;;;;11.23;6.07;;;5.60;99.90;;;;;;6119452;23;20418;-62
2022/12/20 05:31:35;;;;;;;13.00;6.80;;;5.60;99.90;;;;;;6120072;23;20431;-64
2022/12/20 05:34:02;;;;;;;14.83;5.90;;;5.60;99.90;;;;;;6119909;23;20411;-62
2022/12/20 05:36:29;;;;;;;12.43;6.83;;;5.60;99.90;;;;;;6120113;23;20451;-57
2022/12/20 05:38:56;;;;;;;13.73;6.67;;;5.70;99.90;;;;;;6120470;23;20387;-59
2022/12/20 05:41:22;;;;;;;11.40;6.60;;;5.70;99.90;;;;;;6119205;23;20418;-58
2022/12/20 05:43:52;;;;;;;10.00;6.03;;;5.60;99.90;;;;;;6120856;23;20432;-63
2022/12/20 05:46:19;;;;;;;9.63;5.67;;;5.60;99.90;;;;;;6121677;23;20403;-62
2022/12/20 05:48:47;;;;;;;12.13;6.23;;;5.60;99.90;;;;;;6120310;23;20431;-62
2022/12/20 05:51:14;;;;;;;12.63;7.70;;;5.60;99.90;;;;;;6119931;23;20459;-61
2022/12/20 05:53:44;;;;;;;12.97;7.37;;;5.70;99.90;;;;;;6120367;23;20839;-61
2022/12/20 05:56:11;;;;;;;19.57;7.40;;;5.70;99.90;;;;;;6121072;23;20554;-57
2022/12/20 05:58:39;;;;;;;12.13;6.60;;;5.80;99.90;;;;;;6121568;23;20870;-62
2022/12/20 06:01:08;;;;;;;12.10;6.43;;;5.80;99.90;;;;;;6121072;23;20435;-61
2022/12/20 06:03:35;;;;;;;18.10;6.77;;;5.90;99.90;;;;;;6122607;23;20435;-61
2022/12/20 06:06:03;;;;;;;11.97;7.20;;;5.90;99.90;;;;;;6118186;23;20466;-62
2022/12/20 06:08:30;;;;;;;9.57;5.83;;;5.90;99.90;;;;;;6119972;23;20427;-61
2022/12/20 06:10:57;;;;;;;11.57;6.30;;;5.90;99.90;;;;;;6121172;23;20403;-63
2022/12/20 06:13:27;;;;;;;11.63;6.40;;;6.00;99.90;;;;;;6121844;23;20490;-63
2022/12/20 06:15:54;;;;;;;13.63;5.70;;;6.00;99.90;;;;;;6122154;23;20439;-61
2022/12/20 06:18:21;;;;;;;8.57;5.70;;;6.00;99.90;;;;;;6121541;23;20407;-60
2022/12/20 06:20:50;;;;;;;12.40;6.10;;;6.10;99.90;;;;;;6121638;23;20427;-63
2022/12/20 06:23:19;;;;;;;12.90;7.30;;;6.10;99.90;;;;;;6119011;23;20475;-63
2022/12/20 06:25:46;;;;;;;11.40;7.00;;;6.10;99.90;;;;;;6121155;23;20407;-63
2022/12/20 06:28:13;;;;;;;12.70;7.70;;;6.10;99.90;;;;;;6121849;23;20376;-63
2022/12/20 06:30:39;;;;;;;11.13;6.00;;;6.10;99.90;;;;;;6121459;23;20427;-62
2022/12/20 06:33:06;;;;;;;14.67;6.47;;;6.10;99.90;;;;;;6122985;23;20431;-58
2022/12/20 06:35:33;;;;;;;14.33;8.50;;;6.20;99.90;;;;;;6122572;23;20407;-56
2022/12/20 06:38:00;;;;;;;20.40;9.73;;;6.20;99.90;;;;;;6123317;23;20462;-64
2022/12/20 06:40:28;;;;;;;13.13;7.00;;;6.20;99.90;;;;;;6122384;23;20399;-60
2022/12/20 06:42:55;;;;;;;12.97;7.60;;;6.20;99.90;;;;;;6117847;23;20439;-59
2022/12/20 06:45:22;;;;;;;15.07;6.70;;;6.20;99.90;;;;;;6122155;23;20442;-61
2022/12/20 06:47:49;;;;;;;10.80;6.43;;;6.20;99.90;;;;;;6123628;23;20407;-64
2022/12/20 06:50:16;;;;;;;10.87;6.93;;;6.20;99.90;;;;;;6122832;23;20388;-62
2022/12/20 06:52:43;;;;;;;12.03;6.50;;;6.20;99.90;;;;;;6117484;23;20389;-64
2022/12/20 06:55:10;;;;;;;11.33;7.00;;;6.20;99.90;;;;;;6122133;23;20403;-62
2022/12/20 06:57:38;;;;;;;14.27;7.10;;;6.10;99.90;;;;;;6121517;23;20451;-61
2022/12/20 07:00:07;;;;;;;11.37;6.97;;;6.20;99.90;;;;;;6117139;23;20750;-64
2022/12/20 07:02:34;;;;;;;10.90;6.30;;;6.20;99.90;;;;;;6120941;23;20423;-61
2022/12/20 07:05:00;;;;;;;11.80;6.67;;;6.20;99.90;;;;;;6120575;23;20373;-57
2022/12/20 07:07:27;;;;;;;11.93;7.10;;;6.20;99.90;;;;;;6120771;23;20445;-63
2022/12/20 07:09:54;;;;;;;11.20;7.50;;;6.20;99.90;;;;;;6119515;23;20468;-60
2022/12/20 07:12:22;;;;;;;10.20;7.37;;;6.20;99.90;;;;;;6120980;23;20403;-62
2022/12/20 07:14:50;;;;;;;14.57;6.70;;;6.20;99.90;;;;;;6120728;23;20395;-60
2022/12/20 07:17:17;;;;;;;17.00;8.10;;;6.20;99.90;;;;;;6119900;23;20444;-62
2022/12/20 07:19:44;;;;;;;14.00;6.53;;;6.20;99.90;;;;;;6120663;23;20415;-60
2022/12/20 07:22:11;;;;;;;11.27;6.87;;;6.30;99.90;;;;;;6119753;23;20464;-64
2022/12/20 07:24:38;;;;;;;14.40;5.63;;;6.30;99.90;;;;;;6120967;23;20408;-62
2022/12/20 07:27:07;;;;;;;13.60;7.87;;;6.30;99.90;;;;;;6121801;23;20432;-63
2022/12/20 07:29:35;;;;;;;15.10;7.13;;;6.30;99.90;;;;;;6120675;23;20479;-63
2022/12/20 07:32:03;;;;;;;9.60;6.00;;;6.40;99.90;;;;;;6121261;23;20447;-61
2022/12/20 07:34:30;;;;;;;10.73;6.60;;;6.40;99.90;;;;;;6121376;23;20455;-63
2022/12/20 07:36:57;;;;;;;17.60;7.47;;;6.40;99.90;;;;;;6120609;23;20428;-62
2022/12/20 07:39:25;;;;;;;9.73;6.73;;;6.40;99.90;;;;;;6121112;23;20416;-60
2022/12/20 07:41:54;;;;;;;10.63;7.67;;;6.40;99.90;;;;;;6117584;23;20411;-63
2022/12/20 07:44:22;;;;;;;14.43;8.33;;;6.50;99.90;;;;;;6120503;23;20427;-62
2022/12/20 07:46:49;;;;;;;9.13;6.00;;;6.50;99.90;;;;;;6120076;23;20415;-65
2022/12/20 07:49:17;;;;;;;12.10;6.77;;;6.50;99.90;;;;;;6120353;23;20408;-61
2022/12/20 07:51:48;;;;;;;11.93;6.73;;;6.50;99.90;;;;;;6121202;23;20418;-55
2022/12/20 07:54:19;;;;;;;10.70;6.20;;;6.60;99.90;;;;;;6120193;23;20419;-62
2022/12/20 07:56:49;;;;;;;13.70;6.30;;;6.50;99.90;;;;;;6119813;23;20432;-61
2022/12/20 07:59:20;;;;;;;12.23;7.27;;;6.60;99.90;;;;;;6120125;23;20431;-61
2022/12/20 08:01:47;;;;;;;10.73;6.47;;;6.60;99.90;;;;;;6121210;23;20376;-63
2022/12/20 08:04:19;;;;;;;10.63;7.13;;;6.60;99.90;;;;;;6120361;23;20408;-59
2022/12/20 08:06:46;;;;;;;14.07;7.40;;;6.60;99.90;;;;;;6120350;23;20395;-62
2022/12/20 08:09:14;;;;;;;12.23;6.60;;;6.70;99.90;;;;;;6120868;23;20408;-63
2022/12/20 08:11:44;;;;;;;13.83;7.77;;;6.70;99.90;;;;;;6120476;23;20431;-62
2022/12/20 08:14:11;;;;;;;14.43;7.43;;;6.70;99.90;;;;;;6120637;23;20403;-62
2022/12/20 08:16:38;;;;;;;13.60;8.37;;;6.70;99.90;;;;;;6121172;23;20471;-59
2022/12/20 08:19:05;;;;;;;17.57;10.10;;;6.70;99.90;;;;;;6121432;23;20383;-61
2022/12/20 08:21:34;;;;;;;17.13;10.60;;;6.70;99.90;;;;;;6121508;23;20415;-62
2022/12/20 08:24:00;;;;;;;15.77;9.03;;;6.70;99.90;;;;;;6121768;23;20427;-62
2022/12/20 08:26:27;;;;;;;18.33;9.83;;;6.70;99.90;;;;;;6121811;23;20404;-60
2022/12/20 08:28:56;;;;;;;17.63;8.07;;;6.70;99.90;;;;;;6121344;23;20415;-63
2022/12/20 08:31:23;;;;;;;13.83;7.73;;;6.70;99.90;;;;;;6120330;23;20436;-59
2022/12/20 08:33:53;;;;;;;14.17;9.80;;;6.70;99.90;;;;;;6116578;23;20404;-62
2022/12/20 08:36:20;;;;;;;16.00;9.00;;;6.70;99.90;;;;;;6120746;23;20403;-59
2022/12/20 08:38:48;;;;;;;29.00;8.87;;;6.70;99.90;;;;;;6119372;23;20509;-62
2022/12/20 08:41:16;;;;;;;13.33;8.57;;;6.80;99.90;;;;;;6118804;23;20423;-63
2022/12/20 08:43:43;;;;;;;12.53;8.13;;;6.70;99.90;;;;;;6121240;23;20479;-59
2022/12/20 08:46:12;;;;;;;15.03;10.50;;;6.80;99.90;;;;;;6120852;23;20435;-63
2022/12/20 08:48:40;;;;;;;17.17;7.67;;;6.80;99.90;;;;;;6121828;23;20468;-60
2022/12/20 08:51:09;;;;;;;13.57;9.43;;;6.80;99.90;;;;;;6115842;23;20515;-60
2022/12/20 08:53:37;;;;;;;15.63;8.13;;;6.90;99.90;;;;;;6120996;23;20398;-58
2022/12/20 08:56:07;;;;;;;15.80;7.83;;;6.90;99.90;;;;;;6119733;23;20445;-56
2022/12/20 08:58:34;;;;;;;12.00;7.73;;;6.90;99.90;;;;;;6121111;23;20379;-53
2022/12/20 09:01:02;;;;;;;17.03;8.70;;;6.90;99.90;;;;;;6121691;23;20430;-58
2022/12/20 09:03:31;;;;;;;14.93;9.27;;;6.90;99.90;;;;;;6115122;23;20459;-56
2022/12/20 09:05:58;;;;;;;16.37;8.40;;;6.90;99.90;;;;;;6120511;23;20434;-55
2022/12/20 09:08:25;;;;;;;13.80;8.43;;;6.90;99.90;;;;;;6113228;23;20431;-53
2022/12/20 09:10:53;;;;;;;14.83;8.40;;;7.00;99.90;;;;;;6121158;23;20403;-51
2022/12/20 09:13:21;;;;;;;14.30;7.73;;;6.90;99.90;;;;;;6120853;23;20438;-58
2022/12/20 09:15:48;;;;;;;15.97;8.40;;;6.90;99.90;;;;;;6121193;23;20414;-60
2022/12/20 09:18:15;;;;;;;12.33;7.43;;;7.00;99.90;;;;;;6121402;23;20455;-58
2022/12/20 09:20:44;;;;;;;14.27;8.53;;;6.90;99.90;;;;;;6114465;23;20411;-54
2022/12/20 09:23:11;;;;;;;18.53;9.07;;;7.00;99.90;;;;;;6121401;23;20475;-57
2022/12/20 09:25:38;;;;;;;15.20;8.70;;;7.10;99.90;;;;;;6114035;23;20415;-53
2022/12/20 09:28:07;;;;;;;14.37;7.90;;;7.20;99.90;;;;;;6115928;23;20440;-61
2022/12/20 09:30:35;;;;;;;18.30;8.50;;;7.20;99.90;;;;;;6117989;23;20395;-53
2022/12/20 09:33:04;;;;;;;14.20;7.93;;;7.20;99.90;;;;;;6122646;23;20407;-60
2022/12/20 09:35:34;;;;;;;17.17;8.83;;;7.30;99.90;;;;;;6123579;23;20399;-65
2022/12/20 09:38:01;;;;;;;11.97;7.27;;;7.30;99.90;;;;;;6123278;23;20458;-58
2022/12/20 09:40:32;;;;;;;12.17;7.80;;;7.40;99.90;;;;;;6123498;23;20376;-58
2022/12/20 09:42:59;;;;;;;13.53;7.00;;;7.50;99.90;;;;;;6122882;23;20419;-61
2022/12/20 09:45:35;;;;;;;13.73;7.93;;;7.60;99.90;;;;;;6116459;23;20398;-59
2022/12/20 09:48:08;;;;;;;14.00;7.50;;;7.70;99.90;;;;;;6114704;23;20387;-57
2022/12/20 09:50:46;;;;;;;12.87;7.83;;;7.90;99.90;;;;;;6123711;23;20878;-59
2022/12/20 09:53:28;;;;;;;14.73;8.00;;;7.90;99.90;;;;;;6123657;23;20439;-60
2022/12/20 09:56:03;;;;;;;13.60;7.63;;;8.00;99.90;;;;;;6122498;23;20693;-56
2022/12/20 09:58:56;;;;;;;13.90;7.63;;;8.00;99.90;;;;;;6120342;23;20524;-58
2022/12/20 10:01:31;;;;;;;11.80;7.07;;;8.00;99.90;;;;;;6084658;23;20427;-61
2022/12/20 10:04:02;;;;;;;16.70;8.10;;;8.10;99.90;;;;;;6123487;23;20371;-52
2022/12/20 10:06:40;;;;;;;11.27;6.00;;;8.20;99.90;;;;;;6121796;23;20437;-57
2022/12/20 10:09:19;;;;;;;13.10;7.00;;;8.30;99.90;;;;;;6124120;23;20391;-57
2022/12/20 10:12:00;;;;;;;14.33;7.33;;;8.50;99.90;;;;;;6122170;23;20398;-60
2022/12/20 10:14:46;;;;;;;12.97;8.00;;;8.70;99.90;;;;;;6121449;23;20461;-57
2022/12/20 10:17:26;;;;;;;8.00;5.80;;;9.00;99.90;;;;;;6121585;23;20738;-60
2022/12/20 10:20:09;;;;;;;14.30;7.30;;;9.10;99.90;;;;;;6115835;23;20388;-57
2022/12/20 10:22:44;;;;;;;12.90;7.23;;;9.00;99.90;;;;;;6122157;23;20387;-56
2022/12/20 10:25:18;;;;;;;11.33;7.03;;;8.90;99.90;;;;;;6122485;23;20395;-63
2022/12/20 10:27:47;;;;;;;13.17;6.70;;;8.80;99.90;;;;;;6123142;23;20445;-59
2022/12/20 10:30:16;;;;;;;16.03;7.77;;;8.70;99.90;;;;;;6122484;23;20388;-56
2022/12/20 10:32:45;;;;;;;21.50;6.47;;;8.60;99.90;;;;;;6123213;23;20438;-58
2022/12/20 10:35:23;;;;;;;14.83;6.70;;;8.60;99.90;;;;;;6121440;23;20458;-54
2022/12/20 10:37:59;;;;;;;24.50;6.90;;;8.60;99.90;;;;;;6121369;23;20450;-58
2022/12/20 10:40:28;;;;;;;15.00;8.27;;;8.60;99.90;;;;;;6120954;23;20399;-58
2022/12/20 10:42:55;;;;;;;16.93;9.10;;;8.50;99.90;;;;;;6121365;23;20400;-58
2022/12/20 10:45:33;;;;;;;14.37;6.90;;;8.50;99.90;;;;;;6120194;23;20388;-58
2022/12/20 10:48:02;;;;;;;11.30;6.70;;;9.10;99.90;;;;;;6121124;23;20420;-59
2022/12/20 10:50:30;;;;;;;11.10;7.70;;;9.80;99.90;;;;;;6121455;23;20411;-57
2022/12/20 10:53:21;;;;;;;11.90;7.40;;;9.70;99.90;;;;;;6122447;23;20380;-56
2022/12/20 10:55:48;;;;;;;10.67;6.23;;;9.60;99.90;;;;;;6116382;23;20423;-56
2022/12/20 10:58:18;;;;;;;15.07;8.27;;;9.50;99.90;;;;;;6121219;23;20439;-57
2022/12/20 11:00:45;;;;;;;10.20;7.10;;;9.50;99.90;;;;;;6120890;23;20491;-60
2022/12/20 11:03:16;;;;;;;10.00;6.07;;;9.40;99.90;;;;;;6121093;23;20451;-59
2022/12/20 11:05:57;;;;;;;11.97;6.60;;;9.30;99.90;;;;;;6121065;23;20965;-56
2022/12/20 11:08:25;;;;;;;12.20;6.27;;;9.20;99.90;;;;;;6120530;23;20455;-57
2022/12/20 11:11:12;;;;;;;13.63;8.00;;;9.20;99.90;;;;;;6112332;23;20435;-59
2022/12/20 11:13:40;;;;;;;10.67;5.20;;;9.20;99.90;;;;;;6122102;23;20387;-60
2022/12/20 11:16:20;;;;;;;11.70;6.70;;;9.10;99.90;;;;;;6122006;23;20526;-60
2022/12/20 11:18:57;;;;;;;13.97;6.00;;;9.10;99.90;;;;;;6121430;23;20443;-54
2022/12/20 11:21:32;;;;;;;11.70;6.70;;;9.10;99.90;;;;;;6121945;23;20423;-63
2022/12/20 11:24:09;;;;;;;10.60;7.23;;;9.00;99.90;;;;;;6123018;23;20364;-59
2022/12/20 11:26:55;;;;;;;12.50;7.23;;;8.90;99.90;;;;;;6121697;23;20388;-58
2022/12/20 11:29:41;;;;;;;12.40;7.37;;;9.00;99.90;;;;;;6120902;23;20376;-57
2022/12/20 11:32:21;;;;;;;11.80;5.87;;;8.90;99.90;;;;;;6120826;23;20391;-58
2022/12/20 11:34:56;;;;;;;12.80;6.90;;;8.90;99.90;;;;;;6116733;23;20396;-53
2022/12/20 11:37:26;;;;;;;11.60;6.73;;;8.90;99.90;;;;;;6121123;23;20430;-55
2022/12/20 11:40:12;;;;;;;12.60;7.23;;;8.80;99.90;;;;;;6121539;23;20424;-56
2022/12/20 11:42:54;;;;;;;10.50;6.77;;;8.80;99.90;;;;;;6121758;23;20757;-59
2022/12/20 11:45:28;;;;;;;10.40;6.57;;;8.90;99.90;;;;;;6121926;23;20417;-57
2022/12/20 11:48:17;;;;;;;8.20;5.90;;;9.00;99.90;;;;;;6118285;23;20372;-58
2022/12/20 11:51:01;;;;;;;12.77;6.37;;;9.00;99.90;;;;;;6121047;23;20438;-54
2022/12/20 11:53:35;;;;;;;11.37;7.60;;;9.20;99.90;;;;;;6120975;23;20379;-57
2022/12/20 11:56:06;;;;;;;11.83;7.50;;;9.20;99.90;;;;;;6120111;23;20420;-58
2022/12/20 11:58:45;;;;;;;11.37;7.37;;;9.20;99.90;;;;;;6113001;23;20463;-56
2022/12/20 12:01:14;;;;;;;11.17;7.53;;;9.20;99.90;;;;;;6121865;23;20439;-62
2022/12/20 12:03:46;;;;;;;10.93;7.20;;;9.20;99.90;;;;;;6121806;23;20424;-59
2022/12/20 12:06:23;;;;;;;16.50;8.10;;;9.10;99.90;;;;;;6122231;23;20447;-60
2022/12/20 12:08:58;;;;;;;13.87;6.40;;;9.00;99.90;;;;;;6121441;23;20427;-58
2022/12/20 12:11:29;;;;;;;10.80;7.17;;;9.00;99.90;;;;;;6120356;23;20433;-57
2022/12/20 12:14:00;;;;;;;10.10;7.07;;;9.00;99.90;;;;;;6121395;23;20387;-59
2022/12/20 12:16:30;;;;;;;11.87;7.20;;;9.00;99.90;;;;;;6121142;23;20377;-60
2022/12/20 12:18:59;;;;;;;12.07;7.90;;;9.00;99.90;;;;;;6120673;23;20451;-59
2022/12/20 12:21:31;;;;;;;12.73;8.40;;;9.00;99.90;;;;;;6121299;23;20471;-63
2022/12/20 12:24:06;;;;;;;7.50;6.40;;;9.00;99.90;;;;;;6110737;23;20432;-60
2022/12/20 12:26:35;;;;;;;9.53;6.00;;;9.00;99.90;;;;;;6121843;23;20376;-59
2022/12/20 12:29:06;;;;;;;12.77;6.03;;;9.10;99.90;;;;;;6121667;23;20420;-60
2022/12/20 12:31:39;;;;;;;16.30;8.47;;;9.10;99.90;;;;;;6122444;23;20691;-56
2022/12/20 12:34:17;;;;;;;9.37;5.23;;;9.00;99.90;;;;;;6121293;23;20411;-58
2022/12/20 12:37:15;;;;;;;11.83;6.83;;;9.00;99.90;;;;;;6121293;23;20392;-59
2022/12/20 12:40:21;;;;;;;12.10;6.27;;;9.00;99.90;;;;;;6121583;23;20381;-57
2022/12/20 12:43:14;;;;;;;12.90;7.87;;;9.00;99.90;;;;;;6120552;23;20833;-58
2022/12/20 12:45:46;;;;;;;10.67;6.63;;;9.00;99.90;;;;;;6121417;23;20431;-59
2022/12/20 12:48:17;;;;;;;13.93;6.70;;;9.00;99.90;;;;;;6121395;23;20390;-60
2022/12/20 12:50:47;;;;;;;9.87;6.60;;;9.00;99.90;;;;;;6120668;23;20561;-56
2022/12/20 12:53:17;;;;;;;12.17;6.03;;;9.00;99.90;;;;;;6121199;23;20419;-57
2022/12/20 12:55:50;;;;;;;11.00;6.00;;;9.00;99.90;;;;;;6120908;23;20408;-59
2022/12/20 12:58:33;;;;;;;10.20;6.63;;;9.00;99.90;;;;;;6120900;23;20479;-62
2022/12/20 13:01:04;;;;;;;13.27;8.07;;;8.90;99.90;;;;;;6117925;23;20415;-55
2022/12/20 13:03:44;;;;;;;15.97;8.70;;;8.90;99.90;;;;;;6120288;23;20427;-60
2022/12/20 13:06:44;;;;;;;12.00;6.50;;;8.90;99.90;;;;;;6120574;23;20387;-55
2022/12/20 13:09:21;;;;;;;9.70;6.17;;;8.90;99.90;;;;;;6121503;23;20451;-60
2022/12/20 13:11:49;;;;;;;10.90;5.90;;;9.00;99.90;;;;;;6122055;23;20418;-58